Time;durP1;ratioP1;P1;durP2;ratioP2;P2;SDS_P1;SDS_P2;PMS_P1;PMS_P2;Temp;Humidity;BMP_temperature;BMP_pressure;BME280_temperature;BME280_humidity;BME280_pressure;Samples;Min_cycle;Max_cycle;Signal;HPM_P1;HPM_P2
2023/02/21 02:14:12;;;;;;;;;;;;;;;15.24;45.73;100660.16;5108692;28;1172;-47
2023/02/21 02:16:57;;;;;;;;;;;;;;;16.73;42.34;100660.38;5095091;28;1176;-43
2023/02/21 02:19:23;;;;;;;;;;;;;;;16.81;41.90;100666.41;5064178;28;1735;-46
2023/02/21 02:22:12;;;;;;;;;;;;;;;15.96;44.06;100663.13;5094670;28;1195;-43
2023/02/21 02:24:59;;;;;;;;;;;;;;;15.61;44.86;100672.06;5092982;28;1588;-46
2023/02/21 02:27:25;;;;;;;;;;;;;;;15.42;45.10;100677.19;5094690;28;1497;-44
2023/02/21 02:30:10;;;;;;;;;;;;;;;15.28;45.64;100683.19;5089804;28;1248;-41
2023/02/21 02:33:01;;;;;;;;;;;;;;;16.98;41.86;100677.91;5093971;28;1968;-45
2023/02/21 02:35:28;;;;;;;;;;;;;;;16.68;42.18;100685.09;5069441;28;1184;-45
2023/02/21 02:37:53;;;;;;;;;;;;;;;15.94;44.13;100695.50;5092864;28;1319;-43
2023/02/21 02:40:19;;;;;;;;;;;;;;;15.70;44.69;100687.72;5091978;28;1487;-45
2023/02/21 02:43:08;;;;;;;;;;;;;;;15.41;45.38;100681.88;5094176;28;1147;-45
2023/02/21 02:45:36;;;;;;;;;;;;;;;15.51;45.17;100683.81;5092531;28;1271;-46
2023/02/21 02:48:02;;;;;;;;;;;;;;;17.16;41.47;100672.94;5092772;28;1323;-45
2023/02/21 02:50:28;;;;;;;;;;;;;;;16.49;42.53;100657.38;5075965;28;2025;-45
2023/02/21 02:52:54;;;;;;;;;;;;;;;15.93;44.11;100668.34;5092137;28;1910;-44
2023/02/21 02:55:25;;;;;;;;;;;;;;;15.60;44.84;100660.28;5093412;28;1226;-43
2023/02/21 02:57:50;;;;;;;;;;;;;;;15.43;45.23;100667.91;5092426;28;1254;-45
2023/02/21 03:00:18;;;;;;;;;;;;;;;15.24;45.75;100657.41;5092253;28;1274;-45
2023/02/21 03:03:02;;;;;;;;;;;;;;;15.85;44.42;100666.94;5094449;28;1307;-44
2023/02/21 03:05:29;;;;;;;;;;;;;;;17.35;40.77;100659.38;5072126;28;1208;-43
2023/02/21 03:07:54;;;;;;;;;;;;;;;16.35;42.84;100651.63;5109188;28;1473;-45
2023/02/21 03:10:22;;;;;;;;;;;;;;;15.81;44.10;100643.91;5092049;28;1357;-48
2023/02/21 03:12:47;;;;;;;;;;;;;;;15.54;44.58;100653.13;5092092;28;1988;-45
2023/02/21 03:15:22;;;;;;;;;;;;;;;15.34;45.31;100657.44;5093149;28;1266;-47
2023/02/21 03:17:52;;;;;;;;;;;;;;;16.42;43.08;100652.19;5092743;28;1248;-46
2023/02/21 03:20:18;;;;;;;;;;;;;;;17.37;40.67;100657.19;5094090;28;1226;-44
2023/02/21 03:22:43;;;;;;;;;;;;;;;16.13;43.50;100662.88;5092105;28;1235;-42
2023/02/21 03:25:09;;;;;;;;;;;;;;;15.72;44.46;100655.41;5091939;28;1461;-45
2023/02/21 03:27:36;;;;;;;;;;;;;;;15.48;45.03;100654.22;5091900;28;1281;-42
2023/02/21 03:30:33;;;;;;;;;;;;;;;15.28;45.61;100665.91;5084000;28;1256;-42
2023/02/21 03:32:59;;;;;;;;;;;;;;;16.81;41.96;100661.72;5093570;28;1909;-44
2023/02/21 03:35:28;;;;;;;;;;;;;;;16.70;41.97;100652.69;5094204;28;1247;-47
2023/02/21 03:37:54;;;;;;;;;;;;;;;15.90;43.95;100664.22;5075563;28;1220;-46
2023/02/21 03:40:31;;;;;;;;;;;;;;;15.58;44.69;100665.19;5077171;28;1114;-44
2023/02/21 03:42:58;;;;;;;;;;;;;;;15.34;45.12;100664.84;5109474;28;1232;-45
2023/02/21 03:45:26;;;;;;;;;;;;;;;15.15;45.51;100670.81;5076586;28;1143;-44
2023/02/21 03:48:13;;;;;;;;;;;;;;;16.84;41.80;100674.09;5075815;28;1398;-46
2023/02/21 03:50:39;;;;;;;;;;;;;;;16.65;41.90;100680.16;5077849;28;2579;-47
2023/02/21 03:53:05;;;;;;;;;;;;;;;15.84;43.82;100688.06;5075990;28;1971;-45
2023/02/21 03:55:31;;;;;;;;;;;;;;;15.54;44.63;100683.28;5075914;28;1921;-46
2023/02/21 03:57:59;;;;;;;;;;;;;;;15.35;45.23;100675.53;5074725;28;2135;-48
2023/02/21 04:00:26;;;;;;;;;;;;;;;16.11;43.30;100680.72;5078767;28;2122;-42
2023/02/21 04:02:54;;;;;;;;;;;;;;;17.15;41.31;100680.34;5101855;28;2324;-44
2023/02/21 04:05:29;;;;;;;;;;;;;;;16.01;43.53;100693.31;5090439;28;2238;-46
2023/02/21 04:07:56;;;;;;;;;;;;;;;15.63;44.42;100687.16;5094980;28;995;-44
2023/02/21 04:10:21;;;;;;;;;;;;;;;15.43;44.91;100676.13;5076255;28;1039;-46
2023/02/21 04:12:47;;;;;;;;;;;;;;;15.46;44.92;100667.34;5074638;28;1984;-44
2023/02/21 04:15:13;;;;;;;;;;;;;;;17.07;41.38;100648.78;5074698;28;1604;-45
2023/02/21 04:17:39;;;;;;;;;;;;;;;16.07;43.45;100656.59;5073633;28;1042;-44
2023/02/21 04:20:06;;;;;;;;;;;;;;;15.62;44.36;100660.84;5074544;28;1210;-43
2023/02/21 04:22:35;;;;;;;;;;;;;;;15.36;45.15;100655.28;5074249;28;1253;-42
2023/02/21 04:25:01;;;;;;;;;;;;;;;15.42;44.98;100658.88;5063681;28;1226;-44
2023/02/21 04:27:29;;;;;;;;;;;;;;;17.09;41.50;100654.81;5074179;28;1214;-47
2023/02/21 04:29:55;;;;;;;;;;;;;;;16.42;42.44;100652.19;5074570;28;1228;-44
2023/02/21 04:32:21;;;;;;;;;;;;;;;15.77;44.29;100654.56;5108363;28;1967;-44
2023/02/21 04:34:46;;;;;;;;;;;;;;;15.51;44.63;100656.41;5074717;28;1584;-46
2023/02/21 04:37:12;;;;;;;;;;;;;;;15.32;45.11;100647.84;5075398;28;2086;-45
2023/02/21 04:39:37;;;;;;;;;;;;;;;16.01;43.82;100643.94;5060952;28;1027;-48
2023/02/21 04:42:03;;;;;;;;;;;;;;;17.35;40.76;100637.41;5073027;28;1472;-46
2023/02/21 04:44:29;;;;;;;;;;;;;;;16.39;42.73;100643.69;5073636;28;1391;-46
2023/02/21 04:46:55;;;;;;;;;;;;;;;15.80;44.17;100647.75;5074107;28;1266;-45
2023/02/21 04:49:20;;;;;;;;;;;;;;;15.56;44.67;100643.56;5083909;28;1286;-44
2023/02/21 04:51:46;;;;;;;;;;;;;;;15.36;45.21;100638.84;5078486;28;1265;-44
2023/02/21 04:54:11;;;;;;;;;;;;;;;15.26;45.28;100637.97;5080077;28;1985;-50
2023/02/21 04:56:38;;;;;;;;;;;;;;;16.59;42.51;100631.84;5080092;28;1050;-44
2023/02/21 04:59:03;;;;;;;;;;;;;;;17.15;41.03;100638.31;5078918;28;1075;-42
2023/02/21 05:01:29;;;;;;;;;;;;;;;16.08;43.41;100633.50;5080078;28;1153;-43
2023/02/21 05:03:55;;;;;;;;;;;;;;;15.70;44.32;100626.59;5079052;28;1130;-48
2023/02/21 05:06:21;;;;;;;;;;;;;;;15.51;44.85;100629.81;5078774;28;2659;-54
2023/02/21 05:08:47;;;;;;;;;;;;;;;15.33;45.07;100627.59;5079287;28;1046;-50
2023/02/21 05:11:12;;;;;;;;;;;;;;;16.88;41.65;100628.50;5079396;28;1121;-46
2023/02/21 05:13:38;;;;;;;;;;;;;;;16.79;41.55;100624.66;5079121;28;1976;-49
2023/02/21 05:16:03;;;;;;;;;;;;;;;15.99;43.68;100643.41;5079495;28;1117;-46
2023/02/21 05:18:29;;;;;;;;;;;;;;;15.68;44.11;100639.75;5078964;28;1076;-51
2023/02/21 05:20:54;;;;;;;;;;;;;;;15.45;44.66;100635.59;5079096;28;1400;-55
2023/02/21 05:23:32;;;;;;;;;;;;;;;15.54;44.58;100631.22;5078689;28;1090;-44
2023/02/21 05:26:01;;;;;;;;;;;;;;;17.19;41.10;100622.91;5077769;28;1174;-52
2023/02/21 05:28:27;;;;;;;;;;;;;;;16.52;42.06;100620.31;5078377;28;1149;-54
2023/02/21 05:30:52;;;;;;;;;;;;;;;15.85;43.69;100609.38;5078713;28;1023;-46
2023/02/21 05:33:18;;;;;;;;;;;;;;;15.58;44.58;100624.09;5078527;28;1910;-45
2023/02/21 05:35:46;;;;;;;;;;;;;;;15.44;44.94;100622.97;5078339;28;2253;-50
2023/02/21 05:38:11;;;;;;;;;;;;;;;16.16;43.34;100617.59;5078497;28;1114;-45
2023/02/21 05:40:37;;;;;;;;;;;;;;;17.22;40.61;100611.34;5079129;28;987;-44
2023/02/21 05:43:02;;;;;;;;;;;;;;;16.13;43.25;100619.00;5076644;28;1277;-50
2023/02/21 05:45:28;;;;;;;;;;;;;;;15.72;43.94;100613.44;5077863;28;1166;-46
2023/02/21 05:47:57;;;;;;;;;;;;;;;15.46;44.72;100623.50;5077371;28;1107;-50
2023/02/21 05:50:22;;;;;;;;;;;;;;;15.33;45.16;100628.44;5077914;28;1190;-49
2023/02/21 05:52:48;;;;;;;;;;;;;;;16.17;43.32;100625.59;5071783;28;1906;-50
2023/02/21 05:55:13;;;;;;;;;;;;;;;17.38;40.45;100626.66;5070374;28;911;-48
2023/02/21 05:57:39;;;;;;;;;;;;;;;16.26;42.94;100625.84;5077818;28;1129;-48
2023/02/21 06:00:04;;;;;;;;;;;;;;;15.83;43.83;100626.09;5077484;28;1122;-46
2023/02/21 06:02:37;;;;;;;;;;;;;;;15.55;44.45;100630.94;5077236;28;1011;-52
2023/02/21 06:05:03;;;;;;;;;;;;;;;15.39;44.99;100632.81;5077808;28;1067;-47
2023/02/21 06:07:28;;;;;;;;;;;;;;;16.31;42.95;100631.31;5077641;28;1111;-46
2023/02/21 06:09:53;;;;;;;;;;;;;;;17.39;40.44;100627.47;5077853;28;1107;-48
2023/02/21 06:12:19;;;;;;;;;;;;;;;16.30;42.71;100628.84;5076935;28;1898;-50
2023/02/21 06:14:44;;;;;;;;;;;;;;;15.82;43.77;100629.94;5077730;28;1030;-50
2023/02/21 06:17:10;;;;;;;;;;;;;;;17.12;41.02;100625.16;5077514;28;1202;-45
2023/02/21 06:19:35;;;;;;;;;;;;;;;15.81;43.75;100619.22;5077406;28;859;-51
2023/02/21 06:22:01;;;;;;;;;;;;;;;17.60;40.14;100614.47;5077584;28;1051;-49
2023/02/21 06:24:26;;;;;;;;;;;;;;;16.89;41.36;100617.25;5077494;28;1043;-46
2023/02/21 06:26:51;;;;;;;;;;;;;;;16.07;43.03;100617.34;5077316;28;1027;-48
2023/02/21 06:29:17;;;;;;;;;;;;;;;15.77;43.48;100615.34;5077869;28;1198;-45
2023/02/21 06:31:42;;;;;;;;;;;;;;;16.72;42.10;100620.28;5076998;28;1158;-47
2023/02/21 06:34:08;;;;;;;;;;;;;;;15.86;43.63;100621.97;5077278;28;1905;-48
2023/02/21 06:36:34;;;;;;;;;;;;;;;16.66;42.48;100623.31;5082647;28;1078;-55
2023/02/21 06:38:59;;;;;;;;;;;;;;;16.81;41.71;100622.47;5076757;28;1209;-52
2023/02/21 06:41:26;;;;;;;;;;;;;;;16.01;43.76;100626.66;5076914;28;1103;-50
2023/02/21 06:43:52;;;;;;;;;;;;;;;16.96;41.91;100625.19;5035002;28;1201318;-50
2023/02/21 06:46:18;;;;;;;;;;;;;;;16.20;43.06;100621.44;5077244;28;1550;-51
2023/02/21 06:48:43;;;;;;;;;;;;;;;16.46;42.67;100618.69;5076409;28;1167;-49
2023/02/21 06:51:10;;;;;;;;;;;;;;;17.35;40.60;100616.25;5077094;28;1007;-52
2023/02/21 06:53:38;;;;;;;;;;;;;;;16.17;43.29;100605.53;5076709;28;1910;-52
2023/02/21 06:56:04;;;;;;;;;;;;;;;16.27;43.39;100607.47;5076711;28;1213;-50
2023/02/21 06:58:29;;;;;;;;;;;;;;;16.68;41.94;100607.41;5093397;28;1186;-50
2023/02/21 07:00:54;;;;;;;;;;;;;;;16.05;43.50;100603.09;5072387;28;1163;-47
2023/02/21 07:03:20;;;;;;;;;;;;;;;17.49;40.71;100610.97;5058095;28;1142;-48
2023/02/21 07:05:45;;;;;;;;;;;;;;;16.46;42.64;100611.28;5070677;28;1456;-47
2023/02/21 07:08:11;;;;;;;;;;;;;;;18.17;38.99;100606.63;5077066;28;907;-56
2023/02/21 07:10:36;;;;;;;;;;;;;;;18.06;39.10;100603.16;5077208;28;1058;-47
2023/02/21 07:13:02;;;;;;;;;;;;;;;16.76;41.75;100610.41;5065284;28;2506;-53
2023/02/21 07:15:27;;;;;;;;;;;;;;;16.34;42.66;100608.84;5073515;28;1383;-54
2023/02/21 07:17:53;;;;;;;;;;;;;;;16.21;42.86;100601.97;5074642;28;1312;-53
2023/02/21 07:20:18;;;;;;;;;;;;;;;16.02;43.05;100607.19;5074866;28;1449;-55
2023/02/21 07:22:43;;;;;;;;;;;;;;;15.86;43.25;100602.78;5049888;28;5379;-52
2023/02/21 07:25:12;;;;;;;;;;;;;;;16.86;41.65;100593.06;5056837;28;1035;-52
2023/02/21 07:27:38;;;;;;;;;;;;;;;16.52;42.66;100601.09;5056181;28;1078;-52
2023/02/21 07:30:03;;;;;;;;;;;;;;;17.65;40.05;100600.66;5054068;28;1301;-49
2023/02/21 07:32:29;;;;;;;;;;;;;;;18.54;38.35;100582.38;5047032;28;2458;-51
2023/02/21 07:34:54;;;;;;;;;;;;;;;16.92;41.43;100588.41;5031986;28;6047;-51
2023/02/21 07:37:20;;;;;;;;;;;;;;;16.48;42.64;100597.28;5056333;28;1254;-48
2023/02/21 07:39:45;;;;;;;;;;;;;;;16.29;42.96;100588.81;4988170;28;10691;-52
2023/02/21 07:42:12;;;;;;;;;;;;;;;16.83;41.94;100588.16;4995252;28;1267;-52
2023/02/21 07:44:37;;;;;;;;;;;;;;;16.52;42.61;100587.38;4864789;28;12904;-50
2023/02/21 07:47:03;;;;;;;;;;;;;;;17.24;41.22;100587.19;4985307;28;1149;-52
2023/02/21 07:49:28;;;;;;;;;;;;;;;18.00;39.25;100579.53;4984616;28;1164;-49
2023/02/21 07:51:54;;;;;;;;;;;;;;;16.75;42.06;100580.47;4977889;28;1109;-45
2023/02/21 07:54:20;;;;;;;;;;;;;;;16.31;42.86;100573.69;4964304;28;2179;-46
2023/02/21 07:56:46;;;;;;;;;;;;;;;16.14;42.91;100560.28;4973875;28;2385;-44
2023/02/21 07:59:11;;;;;;;;;;;;;;;16.83;41.74;100565.34;4984158;28;1231;-52
2023/02/21 08:01:36;;;;;;;;;;;;;;;16.22;42.99;100565.22;4978830;28;1382;-55
2023/02/21 08:04:02;;;;;;;;;;;;;;;16.02;43.37;100568.81;4973830;28;2604;-51
2023/02/21 08:06:27;;;;;;;;;;;;;;;17.27;40.88;100565.44;4972229;28;2911;-47
2023/02/21 08:08:53;;;;;;;;;;;;;;;16.31;42.81;100568.22;4962191;28;2304;-48
2023/02/21 08:11:18;;;;;;;;;;;;;;;16.01;43.37;100569.88;4976026;28;2447;-48
2023/02/21 08:13:44;;;;;;;;;;;;;;;16.99;41.28;100557.91;4976903;28;3133;-49
2023/02/21 08:16:09;;;;;;;;;;;;;;;16.13;43.26;100557.81;4973625;28;2713;-49
2023/02/21 08:18:35;;;;;;;;;;;;;;;15.93;43.52;100558.66;4989176;28;1409;-52
2023/02/21 08:21:00;;;;;;;;;;;;;;;16.67;41.99;100556.34;4965449;28;1440;-52
2023/02/21 08:23:25;;;;;;;;;;;;;;;16.05;43.05;100542.75;4977412;28;1459;-54
2023/02/21 08:25:51;;;;;;;;;;;;;;;17.87;39.54;100538.94;4980173;28;1211;-51
2023/02/21 08:28:16;;;;;;;;;;;;;;;16.56;42.04;100528.94;4981038;28;1244;-49
2023/02/21 08:30:42;;;;;;;;;;;;;;;16.15;42.89;100519.97;4977032;28;1228;-50
2023/02/21 08:33:07;;;;;;;;;;;;;;;17.32;40.57;100506.88;4976981;28;1985;-49
2023/02/21 08:35:33;;;;;;;;;;;;;;;16.36;42.53;100513.31;4976977;28;1072;-52
2023/02/21 08:38:01;;;;;;;;;;;;;;;16.07;43.17;100500.25;4977486;28;1009;-49
2023/02/21 08:40:28;;;;;;;;;;;;;;;16.11;42.97;100507.91;4977614;28;1053;-49
2023/02/21 08:42:53;;;;;;;;;;;;;;;16.77;41.53;100491.22;4980753;28;1175;-52
2023/02/21 08:45:19;;;;;;;;;;;;;;;16.00;43.33;100482.41;5002464;28;1055;-44
2023/02/21 08:47:44;;;;;;;;;;;;;;;15.86;43.54;100487.63;5002122;28;1305;-43
2023/02/21 08:50:10;;;;;;;;;;;;;;;17.16;40.65;100486.09;4997422;28;1196;-48
2023/02/21 08:52:35;;;;;;;;;;;;;;;16.16;42.82;100481.28;4999037;28;1914;-50
2023/02/21 08:55:01;;;;;;;;;;;;;;;15.90;43.17;100478.56;4996064;28;1132;-46
2023/02/21 08:57:26;;;;;;;;;;;;;;;15.95;43.39;100476.91;5011345;28;953;-48
2023/02/21 08:59:52;;;;;;;;;;;;;;;16.45;42.13;100488.88;4996735;28;1140;-49
2023/02/21 09:02:18;;;;;;;;;;;;;;;15.94;43.46;100487.06;4996298;28;1105;-46
2023/02/21 09:04:43;;;;;;;;;;;;;;;17.26;40.71;100486.88;4996664;28;1199;-45
2023/02/21 09:07:10;;;;;;;;;;;;;;;16.22;42.97;100484.84;4996086;28;1080;-48
2023/02/21 09:09:36;;;;;;;;;;;;;;;16.87;41.46;100489.53;4995922;28;1080;-49
2023/02/21 09:12:02;;;;;;;;;;;;;;;17.19;40.49;100480.84;4997286;28;1996;-47
2023/02/21 09:14:27;;;;;;;;;;;;;;;16.25;42.51;100471.38;5001961;28;1196;-48
2023/02/21 09:16:53;;;;;;;;;;;;;;;16.04;43.02;100478.81;5002825;28;1305;-44
2023/02/21 09:19:20;;;;;;;;;;;;;;;16.81;41.29;100465.94;5001816;28;1278;-49
2023/02/21 09:21:46;;;;;;;;;;;;;;;16.12;43.06;100468.38;4996207;28;1243;-50
2023/02/21 09:24:11;;;;;;;;;;;;;;;15.87;43.18;100461.88;4995952;28;1101;-47
2023/02/21 09:26:37;;;;;;;;;;;;;;;16.52;42.29;100461.97;4996272;28;1025;-49
2023/02/21 09:29:02;;;;;;;;;;;;;;;16.15;42.69;100456.88;4996367;28;1037;-47
2023/02/21 09:31:27;;;;;;;;;;;;;;;17.60;39.83;100458.56;4995984;28;1131;-43
2023/02/21 09:33:53;;;;;;;;;;;;;;;18.03;38.81;100452.41;4995617;28;1959;-48
2023/02/21 09:36:22;;;;;;;;;;;;;;;16.77;41.44;100452.78;4996596;28;1096;-48
2023/02/21 09:38:51;;;;;;;;;;;;;;;16.25;42.40;100426.66;4999543;28;1199;-47
2023/02/21 09:41:17;;;;;;;;;;;;;;;17.13;41.09;100440.78;4999494;28;1112;-45
2023/02/21 09:43:44;;;;;;;;;;;;;;;16.55;41.96;100433.97;4999446;28;1053;-45
2023/02/21 09:46:12;;;;;;;;;;;;;;;16.90;41.34;100423.91;4999475;28;1084;-47
2023/02/21 09:48:38;;;;;;;;;;;;;;;17.64;39.63;100422.22;4999239;28;1153;-48
2023/02/21 09:51:04;;;;;;;;;;;;;;;16.56;41.77;100412.81;5014728;28;1012;-49
2023/02/21 09:53:31;;;;;;;;;;;;;;;16.30;42.59;100432.13;5013281;28;1898;-50
2023/02/21 09:55:59;;;;;;;;;;;;;;;16.15;42.47;100418.47;4991590;28;1073;-45
2023/02/21 09:58:24;;;;;;;;;;;;;;;15.89;42.75;100410.31;5014264;28;1111;-45
2023/02/21 10:00:50;;;;;;;;;;;;;;;17.21;40.34;100409.16;5014475;28;1160;-47
2023/02/21 10:03:30;;;;;;;;;;;;;;;16.28;42.59;100395.09;5014082;28;1072;-48
2023/02/21 10:06:08;;;;;;;;;;;;;;;17.47;40.03;100403.44;4999412;28;1128;-48
2023/02/21 10:08:37;;;;;;;;;;;;;;;16.85;41.25;100393.69;4999150;28;1063;-48
2023/02/21 10:11:19;;;;;;;;;;;;;;;16.32;42.39;100386.03;5000939;28;1049;-50
2023/02/21 10:13:51;;;;;;;;;;;;;;;16.45;42.51;100379.09;5013764;28;1901;-43
2023/02/21 10:16:25;;;;;;;;;;;;;;;16.78;41.29;100365.75;5014161;28;1012;-46
2023/02/21 10:18:55;;;;;;;;;;;;;;;16.28;42.35;100367.66;5001046;28;1260;-47
2023/02/21 10:21:44;;;;;;;;;;;;;;;17.76;39.38;100362.97;5013553;28;1043;-48
2023/02/21 10:24:11;;;;;;;;;;;;;;;16.45;42.00;100364.56;4996271;28;1179;-46
2023/02/21 10:26:39;;;;;;;;;;;;;;;16.20;42.46;100352.59;4998745;28;1144;-45
2023/02/21 10:29:06;;;;;;;;;;;;;;;17.13;40.82;100343.81;4999058;28;1132;-45
2023/02/21 10:31:33;;;;;;;;;;;;;;;16.31;42.61;100345.16;5013777;28;1035;-46
2023/02/21 10:34:01;;;;;;;;;;;;;;;16.12;42.86;100331.22;4998552;28;1993;-47
2023/02/21 10:36:27;;;;;;;;;;;;;;;17.09;40.92;100338.88;4999095;28;1024;-47
2023/02/21 10:38:52;;;;;;;;;;;;;;;16.23;42.78;100311.72;4997533;28;1276;-48
2023/02/21 10:41:17;;;;;;;;;;;;;;;15.96;43.01;100306.63;4990969;28;883;-47
2023/02/21 10:43:43;;;;;;;;;;;;;;;15.91;43.13;100299.25;4998163;28;1208;-49
2023/02/21 10:46:15;;;;;;;;;;;;;;;15.84;43.00;100292.44;4998277;28;881;-51
2023/02/21 10:48:41;;;;;;;;;;;;;;;17.03;41.08;100293.34;5012506;28;1164;-48
2023/02/21 10:51:08;;;;;;;;;;;;;;;16.23;42.44;100283.47;4996041;28;1247;-46
2023/02/21 10:53:37;;;;;;;;;;;;;;;16.52;42.20;100286.31;4990460;28;1898;-51
2023/02/21 10:56:12;;;;;;;;;;;;;;;16.73;41.65;100276.00;4998176;28;1040;-46
2023/02/21 10:58:37;;;;;;;;;;;;;;;16.08;42.68;100260.50;4998528;28;1184;-47
2023/02/21 11:01:32;;;;;;;;;;;;;;;15.84;43.23;100252.13;4997638;28;1077;-48
2023/02/21 11:04:01;;;;;;;;;;;;;;;16.25;42.76;100259.31;4988908;28;1510;-45
2023/02/21 11:06:29;;;;;;;;;;;;;;;16.40;42.13;100267.44;5013635;28;1129;-50
2023/02/21 11:08:55;;;;;;;;;;;;;;;16.04;43.14;100270.38;4997517;28;1330;-46
2023/02/21 11:11:31;;;;;;;;;;;;;;;17.64;39.71;100254.53;4998287;28;1048;-49
2023/02/21 11:14:06;;;;;;;;;;;;;;;16.41;41.96;100258.13;4997824;28;1973;-49
2023/02/21 11:16:33;;;;;;;;;;;;;;;16.07;42.74;100255.28;5012841;28;1140;-50
2023/02/21 11:19:05;;;;;;;;;;;;;;;17.34;40.57;100251.03;4999101;28;1065;-46
2023/02/21 11:21:31;;;;;;;;;;;;;;;16.35;42.51;100261.97;4995497;28;1243;-48
2023/02/21 11:24:02;;;;;;;;;;;;;;;16.08;42.84;100252.25;4995435;28;1422;-44
2023/02/21 11:26:35;;;;;;;;;;;;;;;17.21;40.56;100247.03;4997501;28;1136;-49
2023/02/21 11:29:08;;;;;;;;;;;;;;;16.32;42.51;100261.75;4997954;28;1002;-48
2023/02/21 11:31:33;;;;;;;;;;;;;;;16.66;42.02;100256.28;5012305;28;1020;-49
2023/02/21 11:34:02;;;;;;;;;;;;;;;16.76;41.62;100253.44;4997100;28;1910;-41
2023/02/21 11:36:29;;;;;;;;;;;;;;;16.20;42.70;100257.44;4997565;28;1179;-43
2023/02/21 11:38:58;;;;;;;;;;;;;;;17.25;40.54;100239.81;4999843;28;1207;-47
2023/02/21 11:41:36;;;;;;;;;;;;;;;16.35;42.29;100241.97;4998756;28;1271;-46
2023/02/21 11:44:01;;;;;;;;;;;;;;;17.35;40.61;100247.97;5000023;28;1462;-46
2023/02/21 11:46:45;;;;;;;;;;;;;;;17.08;40.81;100238.38;4996859;28;931;-46
2023/02/21 11:49:13;;;;;;;;;;;;;;;16.42;42.36;100251.53;5012788;28;1091;-45
2023/02/21 11:51:44;;;;;;;;;;;;;;;17.34;40.23;100235.34;4997020;28;1105;-46
2023/02/21 11:54:10;;;;;;;;;;;;;;;16.41;42.23;100222.44;4996894;28;1909;-49
2023/02/21 11:56:58;;;;;;;;;;;;;;;16.16;42.83;100234.41;4997189;28;1103;-48
2023/02/21 11:59:24;;;;;;;;;;;;;;;17.16;41.01;100225.91;4996702;28;1048;-47
2023/02/21 12:01:53;;;;;;;;;;;;;;;16.62;41.92;100211.31;4997058;28;1068;-42
2023/02/21 12:04:37;;;;;;;;;;;;;;;16.16;42.66;100217.09;4996729;28;1313;-48
2023/02/21 12:07:12;;;;;;;;;;;;;;;17.03;40.86;100212.88;4997450;28;1079;-45
2023/02/21 12:09:51;;;;;;;;;;;;;;;17.39;40.24;100182.25;4997390;28;1028;-44
2023/02/21 12:12:35;;;;;;;;;;;;;;;18.88;37.17;100188.31;5015636;28;1973;-46
2023/02/21 12:15:19;;;;;;;;;;;;;;;17.06;40.75;100191.13;4996053;28;981;-48
2023/02/21 12:17:59;;;;;;;;;;;;;;;16.62;41.99;100200.31;4997138;28;1070;-45
2023/02/21 12:20:44;;;;;;;;;;;;;;;16.38;42.19;100201.06;5009259;28;1361;-55
2023/02/21 12:23:21;;;;;;;;;;;;;;;16.25;42.45;100188.78;4995827;28;1187;-51
2023/02/21 12:25:49;;;;;;;;;;;;;;;16.92;41.19;100174.50;4993793;28;1164;-54
2023/02/21 12:28:29;;;;;;;;;;;;;;;16.38;42.32;100159.06;4996164;28;1113;-52
2023/02/21 12:31:04;;;;;;;;;;;;;;;16.65;41.82;100177.78;5011185;28;1064;-53
2023/02/21 12:33:39;;;;;;;;;;;;;;;16.67;41.58;100178.31;5010989;28;1923;-54
2023/02/21 12:36:11;;;;;;;;;;;;;;;16.32;42.30;100177.50;4996081;28;1191;-50
2023/02/21 12:38:59;;;;;;;;;;;;;;;16.11;42.54;100165.88;4996412;28;1045;-54
2023/02/21 12:41:40;;;;;;;;;;;;;;;15.85;42.84;100168.78;4996075;28;1375;-54
2023/02/21 12:44:16;;;;;;;;;;;;;;;16.88;41.14;100175.38;4995690;28;1243;-54
2023/02/21 12:46:45;;;;;;;;;;;;;;;16.18;42.27;100165.53;4996496;28;938;-56
2023/02/21 12:49:25;;;;;;;;;;;;;;;17.53;39.72;100169.44;4996703;28;1075;-53
2023/02/21 12:52:03;;;;;;;;;;;;;;;16.63;41.45;100165.44;5011457;28;1128;-55
2023/02/21 12:54:47;;;;;;;;;;;;;;;16.14;42.52;100159.78;4984084;28;1972;-51
2023/02/21 12:57:22;;;;;;;;;;;;;;;16.02;42.69;100151.09;5011446;28;1124;-53
2023/02/21 12:59:59;;;;;;;;;;;;;;;15.82;42.83;100154.81;5011944;28;1060;-55
2023/02/21 13:02:40;;;;;;;;;;;;;;;16.05;42.54;100150.56;5011476;28;1148;-56
2023/02/21 13:05:12;;;;;;;;;;;;;;;16.38;41.87;100148.94;4995833;28;1286;-50
2023/02/21 13:07:41;;;;;;;;;;;;;;;16.15;42.63;100179.84;5008538;28;1293;-49
2023/02/21 13:10:23;;;;;;;;;;;;;;;17.67;39.21;100183.28;5011238;28;1313;-47
2023/02/21 13:12:51;;;;;;;;;;;;;;;16.42;41.85;100182.91;5014212;28;1963;-41
2023/02/21 13:15:20;;;;;;;;;;;;;;;16.06;42.63;100180.44;5014555;28;1215;-46
2023/02/21 13:17:51;;;;;;;;;;;;;;;16.34;42.11;100179.94;4999574;28;1215;-45
2023/02/21 13:20:18;;;;;;;;;;;;;;;16.73;40.97;100173.56;5000172;28;1216;-47
2023/02/21 13:26:23;;;;;;;;;;;;;;;17.06;40.34;100177.38;4990751;28;1021;-47
2023/02/21 13:28:52;;;;;;;;;;;;;;;16.21;42.13;100160.28;4999663;28;1088;-48
2023/02/21 13:31:22;;;;;;;;;;;;;;;16.06;42.57;100166.72;5015143;28;1134;-45
2023/02/21 13:33:55;;;;;;;;;;;;;;;15.85;42.93;100163.31;4999550;28;1909;-47
2023/02/21 13:36:29;;;;;;;;;;;;;;;15.94;42.92;100154.47;5014306;28;1076;-47
2023/02/21 13:39:13;;;;;;;;;;;;;;;16.28;42.11;100149.00;4999640;28;1024;-44
2023/02/21 13:41:39;;;;;;;;;;;;;;;15.96;42.92;100164.03;4987864;28;1104;-45
2023/02/21 13:44:09;;;;;;;;;;;;;;;17.17;40.33;100152.56;4999424;28;1153;-47
2023/02/21 13:46:35;;;;;;;;;;;;;;;16.28;42.27;100161.91;5014296;28;965;-42
2023/02/21 13:49:19;;;;;;;;;;;;;;;16.06;42.68;100163.16;4999620;28;1212;-42
2023/02/21 13:51:46;;;;;;;;;;;;;;;16.46;41.75;100176.84;4996556;28;1200;-44
2023/02/21 13:54:11;;;;;;;;;;;;;;;15.99;42.98;100176.34;5014130;28;1910;-43
2023/02/21 13:56:40;;;;;;;;;;;;;;;16.64;41.58;100167.91;4998975;28;1290;-44
2023/02/21 13:59:27;;;;;;;;;;;;;;;16.53;41.74;100164.41;4998989;28;989;-44
2023/02/21 14:02:12;;;;;;;;;;;;;;;17.47;39.89;100156.03;4999175;28;1145;-44
2023/02/21 14:04:56;;;;;;;;;;;;;;;17.58;39.27;100160.28;4999187;28;1346;-45
2023/02/21 14:07:48;;;;;;;;;;;;;;;16.63;41.48;100149.78;4972024;28;6858;-45
2023/02/21 14:10:27;;;;;;;;;;;;;;;16.31;41.96;100164.06;4977557;28;5811;-41
2023/02/21 14:12:53;;;;;;;;;;;;;;;17.47;39.89;100154.09;4981416;28;1914;-42
2023/02/21 14:15:18;;;;;;;;;;;;;;;17.27;40.54;100152.44;4999783;28;1315;-46
2023/02/21 14:17:45;;;;;;;;;;;;;;;18.84;37.33;100154.19;5013898;28;1119;-45
2023/02/21 14:20:15;;;;;;;;;;;;;;;18.02;38.55;100161.91;5013869;28;1227;-46
2023/02/21 14:22:40;;;;;;;;;;;;;;;17.08;40.75;100175.19;5016087;28;1029;-42
2023/02/21 14:25:15;;;;;;;;;;;;;;;16.75;41.53;100174.13;5007434;28;1239;-41
2023/02/21 14:27:41;;;;;;;;;;;;;;;16.53;41.61;100178.16;5021013;28;1309;-42
2023/02/21 14:30:09;;;;;;;;;;;;;;;16.40;42.21;100182.38;5005119;28;1240;-45
2023/02/21 14:32:42;;;;;;;;;;;;;;;16.18;42.50;100182.00;5001061;28;1914;-46
2023/02/21 14:35:14;;;;;;;;;;;;;;;16.91;41.07;100199.53;4984073;28;1177;-44
2023/02/21 14:37:39;;;;;;;;;;;;;;;16.31;42.39;100195.06;4998979;28;1117;-45
2023/02/21 14:40:10;;;;;;;;;;;;;;;16.43;42.40;100190.03;4999058;28;1037;-46
2023/02/21 14:42:36;;;;;;;;;;;;;;;16.72;41.38;100196.66;4985893;28;1130;-47
2023/02/21 14:45:10;;;;;;;;;;;;;;;16.25;42.56;100196.22;5003225;28;1251;-44
2023/02/21 14:47:54;;;;;;;;;;;;;;;16.92;41.48;100187.44;5002453;28;1213;-42
2023/02/21 14:50:27;;;;;;;;;;;;;;;16.55;41.77;100197.91;4991271;28;1140;-43
2023/02/21 14:52:59;;;;;;;;;;;;;;;16.16;42.74;100200.66;5017341;28;1914;-42
2023/02/21 14:55:24;;;;;;;;;;;;;;;17.23;40.49;100201.66;4998810;28;1049;-43
2023/02/21 14:58:12;;;;;;;;;;;;;;;16.29;42.44;100202.78;4997990;28;1152;-42
2023/02/21 15:00:49;;;;;;;;;;;;;;;16.79;41.78;100218.28;5006908;28;1055;-46
2023/02/21 15:03:20;;;;;;;;;;;;;;;16.82;41.45;100204.00;4998304;28;1056;-45
2023/02/21 15:05:59;;;;;;;;;;;;;;;16.30;42.54;100207.16;4994097;28;1244;-43
2023/02/21 15:08:24;;;;;;;;;;;;;;;16.15;42.54;100210.81;4998230;28;1005;-47
2023/02/21 15:10:51;;;;;;;;;;;;;;;17.13;40.89;100222.94;4997674;28;1060;-47
2023/02/21 15:13:24;;;;;;;;;;;;;;;16.55;41.91;100219.88;5013041;28;1934;-43
2023/02/21 15:15:55;;;;;;;;;;;;;;;16.17;42.69;100227.00;4998180;28;1033;-49